createdAt,value
2023-02-19T00:31:44.483Z,84.90
2023-02-19T00:34:12.876Z,85.40
2023-02-19T00:36:42.126Z,85.60
2023-02-19T00:39:12.109Z,85.10
2023-02-19T00:41:39.129Z,85.90
2023-02-19T00:44:08.149Z,86.00
2023-02-19T00:46:40.513Z,86.50
2023-02-19T00:49:09.064Z,86.60
2023-02-19T00:51:38.298Z,85.30
2023-02-19T00:54:06.255Z,85.10
2023-02-19T00:56:33.817Z,85.50
2023-02-19T00:59:00.795Z,86.20
2023-02-19T01:01:27.791Z,85.80
2023-02-19T01:03:54.778Z,84.20
2023-02-19T01:06:22.120Z,83.80
2023-02-19T01:08:49.470Z,84.30
2023-02-19T01:11:17.637Z,85.00
2023-02-19T01:13:44.747Z,86.00
2023-02-19T01:16:17.661Z,86.40
2023-02-19T01:18:45.500Z,86.00
2023-02-19T01:21:23.693Z,86.30
2023-02-19T01:23:51.512Z,86.80
2023-02-19T01:26:30.779Z,85.90
2023-02-19T01:28:58.494Z,85.10
2023-02-19T01:31:26.084Z,85.20
2023-02-19T01:33:56.082Z,85.00
2023-02-19T01:36:23.214Z,84.80
2023-02-19T01:38:50.445Z,85.10
2023-02-19T01:41:21.186Z,85.30
2023-02-19T01:44:18.303Z,85.50
2023-02-19T01:46:46.497Z,85.50
2023-02-19T01:49:23.986Z,86.40
2023-02-19T01:52:04.621Z,87.10
2023-02-19T01:54:35.863Z,87.40
2023-02-19T01:57:07.015Z,86.30
2023-02-19T01:59:34.531Z,86.60
2023-02-19T02:02:01.752Z,87.00
2023-02-19T02:04:31.868Z,87.00
2023-02-19T02:07:00.544Z,86.80
2023-02-19T02:09:48.797Z,85.10
2023-02-19T02:12:15.941Z,85.40
2023-02-19T02:14:47.384Z,85.90
2023-02-19T02:17:20.584Z,85.90
2023-02-19T02:20:15.412Z,85.80
2023-02-19T02:23:21.378Z,85.90
2023-02-19T02:25:51.290Z,86.90
2023-02-19T02:28:53.176Z,86.90
2023-02-19T02:31:26.857Z,86.00
2023-02-19T02:34:15.191Z,85.60
2023-02-19T03:38:28.746Z,85.90
2023-02-19T03:41:11.853Z,86.10
2023-02-19T03:43:52.171Z,85.30
2023-02-19T03:46:39.318Z,84.90
2023-02-19T03:49:15.833Z,82.70
2023-02-19T03:51:50.326Z,82.00
2023-02-19T03:54:37.618Z,82.10
2023-02-19T03:57:14.363Z,81.80
2023-02-19T03:59:53.551Z,80.80
2023-02-19T04:02:27.463Z,80.90
2023-02-19T04:05:16.775Z,81.00
2023-02-19T04:07:49.013Z,80.80
2023-02-19T04:10:18.543Z,81.20
2023-02-19T04:12:50.189Z,80.70
2023-02-19T04:15:23.109Z,82.00
2023-02-19T04:18:00.142Z,83.40
2023-02-19T04:20:30.552Z,81.50
2023-02-19T04:22:57.966Z,81.10
2023-02-19T04:25:27.496Z,81.50
2023-02-19T04:27:55.053Z,82.00
2023-02-19T04:30:22.131Z,82.20
2023-02-19T04:32:49.064Z,82.30
2023-02-19T04:35:16.056Z,82.80
2023-02-19T04:37:43.541Z,81.80
2023-02-19T04:40:10.853Z,81.90
2023-02-19T04:42:42.090Z,81.40
2023-02-19T04:45:09.700Z,81.60
2023-02-19T04:47:36.637Z,81.90
2023-02-19T04:50:03.927Z,81.60
2023-02-19T04:52:30.884Z,82.70
2023-02-19T04:54:57.772Z,83.20
2023-02-19T04:57:24.923Z,83.70
2023-02-19T04:59:51.855Z,83.60
2023-02-19T05:02:18.951Z,81.70
2023-02-19T05:04:45.866Z,81.60
2023-02-19T05:07:12.800Z,81.60
2023-02-19T05:09:39.786Z,81.40
2023-02-19T05:12:06.987Z,81.40
2023-02-19T05:14:33.904Z,81.60
2023-02-19T05:17:00.828Z,81.50
2023-02-19T05:19:27.773Z,80.50
2023-02-19T05:21:54.714Z,81.20
2023-02-19T05:24:21.886Z,81.20
2023-02-19T05:26:48.833Z,82.70
2023-02-19T05:29:15.801Z,82.10
2023-02-19T05:31:42.879Z,82.10
2023-02-19T05:34:09.888Z,82.50
2023-02-19T05:36:39.128Z,81.90
2023-02-19T05:39:09.546Z,81.80
2023-02-19T05:41:36.494Z,80.80
2023-02-19T05:44:03.427Z,80.20
2023-02-19T05:46:31.128Z,79.60
2023-02-19T05:48:58.557Z,80.90
2023-02-19T05:51:27.215Z,80.90
2023-02-19T05:53:56.674Z,81.00
2023-02-19T05:56:40.572Z,81.80
2023-02-19T05:59:23.557Z,80.80
2023-02-19T06:01:54.480Z,81.60
2023-02-19T06:04:21.894Z,81.30
2023-02-19T06:06:49.146Z,80.60
2023-02-19T06:09:16.303Z,78.80
2023-02-19T06:11:43.751Z,79.50
2023-02-19T06:14:13.654Z,80.50
2023-02-19T06:16:41.012Z,80.60
2023-02-19T06:19:08.108Z,79.70
2023-02-19T06:21:35.430Z,77.00
2023-02-19T06:24:09.353Z,76.80
2023-02-19T06:26:36.381Z,75.20
2023-02-19T06:29:03.373Z,75.30
2023-02-19T06:31:30.479Z,76.00
2023-02-19T06:33:57.468Z,76.00
2023-02-19T06:36:24.542Z,75.80
2023-02-19T06:38:51.644Z,76.00
2023-02-19T06:41:19.306Z,76.80
2023-02-19T06:43:46.786Z,76.30
2023-02-19T06:46:14.561Z,78.00
2023-02-19T06:48:43.296Z,77.50
2023-02-19T06:51:16.031Z,76.20
2023-02-19T06:53:43.093Z,75.90
2023-02-19T06:56:24.756Z,76.20
2023-02-19T06:58:53.636Z,73.80
2023-02-19T07:01:21.127Z,73.00
2023-02-19T07:03:48.226Z,74.70
2023-02-19T07:06:15.338Z,73.00
2023-02-19T07:08:42.348Z,69.30
2023-02-19T07:11:09.733Z,71.50
2023-02-19T07:13:37.467Z,72.00
2023-02-19T07:16:10.040Z,71.90
2023-02-19T07:18:37.564Z,71.80
2023-02-19T07:21:04.751Z,72.00
2023-02-19T07:23:31.909Z,74.70
2023-02-19T07:25:59.087Z,73.80
2023-02-19T07:28:26.299Z,72.00
2023-02-19T07:30:53.691Z,72.00
2023-02-19T07:33:20.816Z,71.80
2023-02-19T07:35:51.500Z,72.90
2023-02-19T07:38:20.694Z,72.60
2023-02-19T07:40:59.320Z,70.30
2023-02-19T07:43:28.741Z,68.20
2023-02-19T07:45:56.267Z,65.60
2023-02-19T07:48:23.516Z,61.80
2023-02-19T07:50:54.615Z,62.10
2023-02-19T07:53:23.594Z,61.80
2023-02-19T07:55:51.422Z,62.00
2023-02-19T07:58:18.494Z,62.00
2023-02-19T08:00:45.731Z,62.30
2023-02-19T08:03:12.735Z,60.30
2023-02-19T08:05:42.036Z,61.10
2023-02-19T08:08:11.547Z,60.10
2023-02-19T08:11:01.401Z,57.90
2023-02-19T08:13:30.886Z,59.90
2023-02-19T08:16:20.146Z,58.00
2023-02-19T08:18:51.406Z,60.30
2023-02-19T08:21:18.813Z,62.60
2023-02-19T08:23:46.572Z,61.30
2023-02-19T08:26:13.855Z,63.00
2023-02-19T08:28:41.531Z,62.90
2023-02-19T08:31:10.118Z,63.80
2023-02-19T08:33:38.046Z,63.90
2023-02-19T08:36:07.078Z,66.30
2023-02-19T08:38:36.046Z,62.90
2023-02-19T08:41:12.561Z,63.80
2023-02-19T08:43:40.805Z,64.80
2023-02-19T08:46:10.428Z,66.70
2023-02-19T08:48:38.622Z,68.50
2023-02-19T08:51:09.128Z,66.20
2023-02-19T08:53:37.704Z,62.70
2023-02-19T08:56:13.493Z,62.00
2023-02-19T08:58:40.790Z,59.20
2023-02-19T09:01:12.944Z,60.10
2023-02-19T09:03:40.789Z,58.20
2023-02-19T09:06:08.136Z,58.30
2023-02-19T09:08:35.233Z,56.40
2023-02-19T09:11:04.708Z,59.70
2023-02-19T09:13:31.928Z,61.50
2023-02-19T09:15:59.218Z,60.90
2023-02-19T09:18:26.482Z,60.10
2023-02-19T09:20:53.505Z,60.60
2023-02-19T09:23:20.836Z,61.60
2023-02-19T09:25:47.839Z,60.20
2023-02-19T09:28:15.683Z,60.70
2023-02-19T09:30:42.736Z,60.00
2023-02-19T09:33:09.707Z,63.70
2023-02-19T09:35:42.159Z,59.40
2023-02-19T09:38:10.945Z,60.20
2023-02-19T09:40:39.261Z,61.10
2023-02-19T09:43:17.998Z,67.60
2023-02-19T09:45:44.966Z,62.60
2023-02-19T09:48:12.830Z,60.30
2023-02-19T09:50:46.019Z,59.80
2023-02-19T09:53:19.784Z,59.10
2023-02-19T09:55:47.213Z,57.80
2023-02-19T09:58:30.133Z,59.80
2023-02-19T10:00:58.983Z,61.50
2023-02-19T10:03:34.447Z,62.50
2023-02-19T10:06:09.458Z,60.20
2023-02-19T10:08:39.881Z,61.10
2023-02-19T10:11:08.215Z,62.70
2023-02-19T10:13:41.992Z,64.20
2023-02-19T10:16:16.149Z,63.90
2023-02-19T10:18:44.857Z,65.20
2023-02-19T10:21:27.445Z,65.80
2023-02-19T10:23:57.670Z,68.40
2023-02-19T10:26:24.996Z,68.90
2023-02-19T10:28:54.202Z,68.20
2023-02-19T10:31:25.822Z,65.10
2023-02-19T10:33:55.292Z,63.50
2023-02-19T10:36:28.701Z,66.00
2023-02-19T10:38:57.953Z,66.00
2023-02-19T10:41:27.403Z,67.40
2023-02-19T10:44:06.685Z,64.20
2023-02-19T10:46:37.186Z,63.40
2023-02-19T10:49:23.437Z,63.00
2023-02-19T10:51:52.417Z,60.10
2023-02-19T10:54:28.617Z,59.20
2023-02-19T10:57:09.061Z,56.50
2023-02-19T10:59:36.025Z,57.10
2023-02-19T11:02:21.465Z,57.30
2023-02-19T11:05:03.744Z,58.30
2023-02-19T11:07:31.010Z,61.40
2023-02-19T11:09:59.040Z,63.40
2023-02-19T11:12:34.417Z,64.30
2023-02-19T11:15:24.179Z,60.30
2023-02-19T11:18:07.009Z,61.00
2023-02-19T11:20:34.269Z,57.60
2023-02-19T11:23:13.834Z,55.00
2023-02-19T11:25:49.859Z,56.50
2023-02-19T11:28:22.924Z,52.50
2023-02-19T11:30:49.909Z,52.50
2023-02-19T11:33:16.802Z,52.80
2023-02-19T11:35:48.431Z,53.50
2023-02-19T11:38:17.891Z,52.10
2023-02-19T11:41:05.193Z,55.50
2023-02-19T11:44:00.079Z,54.40
2023-02-19T11:46:58.074Z,55.60
2023-02-19T11:49:50.773Z,55.90
2023-02-19T11:52:29.618Z,56.80
2023-02-19T11:55:00.915Z,56.70
2023-02-19T11:57:34.756Z,54.30
2023-02-19T12:00:25.239Z,52.90
2023-02-19T12:03:04.701Z,52.80
2023-02-19T12:05:40.935Z,53.30
2023-02-19T12:08:32.332Z,53.40
2023-02-19T12:11:11.056Z,52.90
2023-02-19T12:14:15.493Z,56.70
2023-02-19T12:16:53.492Z,59.10
2023-02-19T12:19:23.220Z,60.80
2023-02-19T12:22:09.179Z,60.40
2023-02-19T12:25:01.023Z,61.40
2023-02-19T12:27:49.507Z,58.80
2023-02-19T12:30:25.621Z,59.90
2023-02-19T12:32:55.615Z,59.70
2023-02-19T12:35:28.474Z,58.10
2023-02-19T12:38:29.468Z,56.60
2023-02-19T12:40:56.500Z,58.10
2023-02-19T12:43:24.803Z,56.20
2023-02-19T12:46:07.020Z,56.10
2023-02-19T12:48:40.535Z,56.00
2023-02-19T12:51:19.861Z,55.70
2023-02-19T12:54:06.127Z,59.40
2023-02-19T12:56:40.177Z,60.00
2023-02-19T12:59:19.090Z,62.70
2023-02-19T13:02:22.143Z,63.20
2023-02-19T13:04:56.720Z,61.70
2023-02-19T13:08:01.053Z,62.60
2023-02-19T13:10:44.529Z,64.50
2023-02-19T13:13:25.668Z,65.00
2023-02-19T13:16:10.234Z,65.80
2023-02-19T13:18:46.075Z,66.40
2023-02-19T13:21:41.216Z,65.00
2023-02-19T13:24:15.523Z,63.20
2023-02-19T13:27:01.004Z,65.70
2023-02-19T13:29:34.359Z,65.00
2023-02-19T13:32:09.853Z,66.50
2023-02-19T13:35:11.792Z,66.20
2023-02-19T13:37:39.007Z,67.40
2023-02-19T13:40:36.312Z,66.80
2023-02-19T13:43:28.125Z,65.40
2023-02-19T13:46:05.386Z,66.20
2023-02-19T13:48:38.787Z,67.70
2023-02-19T13:51:24.291Z,64.70
2023-02-19T13:53:58.900Z,67.50
2023-02-19T13:56:35.597Z,67.50
2023-02-19T13:59:14.497Z,66.60
2023-02-19T14:01:55.782Z,69.10
2023-02-19T14:04:56.321Z,68.80
2023-02-19T14:07:49.343Z,67.80
2023-02-19T14:11:02.684Z,64.80
2023-02-19T14:14:27.020Z,66.40
2023-02-19T14:17:01.336Z,67.20
2023-02-19T14:19:46.966Z,67.90
2023-02-19T14:22:48.970Z,69.30
2023-02-19T14:25:30.319Z,70.20
2023-02-19T14:28:05.866Z,69.80
2023-02-19T14:30:42.159Z,70.10
2023-02-19T14:33:11.498Z,70.90
2023-02-19T14:35:46.821Z,70.50
2023-02-19T14:38:39.475Z,70.90
2023-02-19T14:41:12.582Z,70.30
2023-02-19T14:43:41.170Z,70.30
2023-02-19T14:46:33.628Z,69.60
2023-02-19T14:49:27.198Z,69.00
2023-02-19T14:52:05.584Z,68.40
2023-02-19T14:55:07.703Z,68.80
2023-02-19T14:57:41.424Z,70.60
2023-02-19T15:00:25.395Z,71.20
2023-02-19T15:02:55.798Z,70.90
2023-02-19T15:05:27.296Z,69.30
2023-02-19T15:07:58.100Z,69.00
2023-02-19T15:10:28.372Z,70.00
2023-02-19T15:13:01.581Z,70.20
2023-02-19T15:15:32.925Z,69.80
2023-02-19T15:18:01.940Z,69.30
2023-02-19T15:20:33.241Z,70.40
2023-02-19T15:23:01.698Z,70.20
2023-02-19T15:25:36.041Z,69.40
2023-02-19T15:28:30.197Z,72.30
2023-02-19T15:30:59.974Z,73.70
2023-02-19T15:33:27.992Z,72.60
2023-02-19T15:36:07.762Z,68.20
2023-02-19T15:38:35.466Z,68.80
2023-02-19T15:41:02.896Z,70.50
2023-02-19T15:43:42.209Z,70.70
2023-02-19T15:46:18.969Z,69.80
2023-02-19T15:49:11.155Z,72.00
2023-02-19T15:51:47.418Z,71.30
2023-02-19T15:54:22.506Z,71.70
2023-02-19T15:56:57.196Z,69.30
2023-02-19T15:59:39.845Z,70.50
2023-02-19T16:02:12.409Z,69.40
2023-02-19T16:04:41.978Z,67.70
2023-02-19T16:07:32.052Z,68.40
2023-02-19T16:10:20.710Z,67.30
2023-02-19T16:13:02.914Z,67.50
2023-02-19T16:15:31.859Z,68.20
2023-02-19T16:17:59.722Z,67.90
2023-02-19T16:20:35.430Z,68.40
2023-02-19T16:23:06.019Z,67.20
2023-02-19T16:25:42.269Z,66.70
2023-02-19T16:28:26.541Z,67.50
2023-02-19T16:31:06.022Z,66.40
2023-02-19T16:33:48.937Z,67.70
2023-02-19T16:36:41.974Z,65.40
2023-02-19T16:39:09.308Z,65.50
2023-02-19T16:41:45.473Z,66.00
2023-02-19T16:44:35.970Z,66.50
2023-02-19T16:47:06.532Z,66.30
2023-02-19T16:49:34.015Z,65.20
2023-02-19T16:52:04.184Z,66.20
2023-02-19T16:54:31.444Z,67.50
2023-02-19T16:56:58.448Z,65.80
2023-02-19T16:59:25.430Z,66.50
2023-02-19T17:01:52.471Z,66.40
2023-02-19T17:04:19.551Z,65.70
2023-02-19T17:06:47.644Z,66.00
2023-02-19T17:09:14.751Z,64.90
2023-02-19T17:11:41.689Z,67.90
2023-02-19T17:14:09.562Z,68.60
2023-02-19T17:16:40.710Z,68.10
2023-02-19T17:19:18.595Z,69.20
2023-02-19T17:21:46.766Z,70.60
2023-02-19T17:24:14.266Z,69.70
2023-02-19T17:26:41.566Z,67.50
2023-02-19T17:29:14.126Z,67.60
2023-02-19T17:31:41.436Z,67.10
2023-02-19T17:34:08.774Z,67.90
2023-02-19T17:36:37.968Z,67.80
2023-02-19T17:39:07.334Z,68.20
2023-02-19T17:41:34.280Z,68.70
2023-02-19T17:44:01.221Z,69.20
2023-02-19T17:46:28.250Z,69.00
2023-02-19T17:48:55.724Z,71.10
2023-02-19T17:51:22.863Z,72.10
2023-02-19T17:53:50.042Z,71.20
2023-02-19T17:56:27.464Z,70.50
2023-02-19T17:58:56.107Z,70.20
2023-02-19T18:01:23.597Z,69.20
2023-02-19T18:03:51.034Z,68.60
2023-02-19T18:06:18.608Z,70.00
2023-02-19T18:08:51.624Z,67.90
2023-02-19T18:11:20.110Z,67.60
2023-02-19T18:13:48.441Z,67.50
2023-02-19T18:16:16.809Z,67.70
2023-02-19T18:18:45.058Z,68.90
2023-02-19T18:21:13.757Z,67.90
2023-02-19T18:23:41.177Z,68.30
2023-02-19T18:26:10.775Z,70.40
2023-02-19T18:28:39.626Z,68.20
2023-02-19T18:31:06.907Z,66.30
2023-02-19T18:33:35.476Z,64.80
2023-02-19T18:36:02.784Z,66.90
2023-02-19T18:38:30.340Z,67.60
2023-02-19T18:40:58.776Z,66.00
2023-02-19T18:43:26.318Z,68.20
2023-02-19T18:45:53.453Z,68.50
2023-02-19T18:48:20.928Z,68.40
2023-02-19T18:50:47.991Z,67.30
2023-02-19T18:53:15.130Z,66.70
2023-02-19T18:55:42.131Z,68.20
2023-02-19T18:58:09.106Z,69.90
2023-02-19T19:00:36.333Z,69.10
2023-02-19T19:03:03.569Z,68.30
2023-02-19T19:05:30.596Z,69.90
2023-02-19T19:08:01.616Z,68.90
2023-02-19T19:10:29.181Z,70.50
2023-02-19T19:12:56.654Z,68.20
2023-02-19T19:15:24.490Z,67.50
2023-02-19T19:17:51.875Z,68.50
2023-02-19T19:20:23.150Z,68.40
2023-02-19T19:22:54.263Z,69.20
2023-02-19T19:25:22.864Z,69.90
2023-02-19T19:27:51.811Z,68.20
2023-02-19T19:30:20.315Z,68.90
2023-02-19T19:32:51.865Z,70.20
2023-02-19T19:35:20.168Z,69.80
2023-02-19T19:37:47.125Z,68.90
2023-02-19T19:40:15.627Z,68.40
2023-02-19T19:42:44.395Z,68.90
2023-02-19T19:45:11.925Z,67.80
2023-02-19T19:47:38.930Z,66.00
2023-02-19T19:50:06.280Z,65.60
2023-02-19T19:52:33.209Z,64.40
2023-02-19T19:55:00.180Z,67.40
2023-02-19T19:57:27.894Z,68.70
2023-02-19T19:59:55.015Z,67.50
2023-02-19T20:02:23.826Z,65.30
2023-02-19T20:04:50.851Z,65.40
2023-02-19T20:07:17.911Z,66.20
2023-02-19T20:09:49.604Z,68.20
2023-02-19T20:12:18.086Z,67.90
2023-02-19T20:14:46.575Z,67.00
2023-02-19T20:17:14.221Z,66.60
2023-02-19T20:19:41.364Z,64.00
2023-02-19T20:22:08.273Z,64.50
2023-02-19T20:24:35.190Z,65.10
2023-02-19T20:27:02.712Z,66.10
2023-02-19T20:29:31.810Z,66.20
2023-02-19T20:32:00.298Z,66.40
2023-02-19T20:34:27.621Z,66.50
2023-02-19T20:36:55.296Z,66.30
2023-02-19T20:39:22.670Z,65.40
2023-02-19T20:41:51.686Z,67.70
2023-02-19T20:44:19.546Z,68.30
2023-02-19T20:46:51.083Z,66.70
2023-02-19T20:49:20.243Z,66.10
2023-02-19T20:51:50.348Z,65.80
2023-02-19T20:54:18.707Z,66.40
2023-02-19T20:56:47.410Z,67.20
2023-02-19T20:59:15.577Z,67.40
2023-02-19T21:01:43.051Z,67.40
2023-02-19T21:04:10.537Z,67.40
2023-02-19T21:06:37.629Z,69.60
2023-02-19T21:09:05.879Z,69.10
2023-02-19T21:11:33.192Z,66.30
2023-02-19T21:14:00.195Z,65.00
2023-02-19T21:16:29.218Z,66.50
2023-02-19T21:18:56.748Z,66.70
2023-02-19T21:21:27.360Z,66.70
2023-02-19T21:23:55.897Z,67.90
2023-02-19T21:26:24.011Z,67.50
2023-02-19T21:28:54.136Z,66.80
2023-02-19T21:31:22.830Z,66.40
2023-02-19T21:33:51.418Z,66.70
2023-02-19T21:36:19.100Z,66.70
2023-02-19T21:38:46.746Z,66.50
2023-02-19T21:41:13.694Z,67.40
2023-02-19T21:43:40.714Z,67.80
2023-02-19T21:46:11.291Z,67.30
2023-02-19T21:48:38.557Z,67.70
2023-02-19T21:51:05.756Z,65.80
2023-02-19T21:53:32.743Z,66.60
2023-02-19T21:55:59.751Z,66.70
2023-02-19T21:58:27.093Z,66.70
2023-02-19T22:00:54.312Z,65.60
2023-02-19T22:03:21.787Z,65.90
2023-02-19T22:05:48.915Z,66.80
2023-02-19T22:08:17.560Z,66.90
2023-02-19T22:10:50.710Z,66.00
2023-02-19T22:13:21.564Z,66.80
2023-02-19T22:15:49.957Z,67.10
2023-02-19T22:18:16.888Z,68.50
2023-02-19T22:20:43.821Z,71.40
2023-02-19T22:23:10.803Z,70.20
2023-02-19T22:25:37.737Z,69.80
2023-02-19T22:28:05.730Z,69.70
2023-02-19T22:30:32.939Z,69.20
2023-02-19T22:33:00.016Z,68.70
2023-02-19T22:35:27.240Z,68.20
2023-02-19T22:37:54.167Z,67.40
2023-02-19T22:40:21.246Z,68.30
2023-02-19T22:42:48.182Z,68.30
2023-02-19T22:45:15.287Z,68.20
2023-02-19T22:47:44.661Z,68.90
2023-02-19T22:50:19.674Z,70.80
2023-02-19T22:52:46.721Z,70.40
2023-02-19T22:55:13.660Z,70.00
2023-02-19T22:57:40.645Z,70.60
2023-02-19T23:00:08.793Z,70.80
2023-02-19T23:02:35.805Z,70.80
2023-02-19T23:05:02.728Z,71.10
2023-02-19T23:07:29.769Z,70.40
2023-02-19T23:09:56.932Z,70.20
2023-02-19T23:12:24.096Z,70.80
2023-02-19T23:14:51.211Z,67.90
2023-02-19T23:17:18.248Z,67.80
2023-02-19T23:19:45.455Z,68.90
2023-02-19T23:22:12.619Z,70.80
2023-02-19T23:24:39.620Z,70.60
2023-02-19T23:27:06.808Z,71.10
2023-02-19T23:29:34.002Z,71.20
2023-02-19T23:32:01.145Z,72.00
2023-02-19T23:34:28.095Z,71.10
2023-02-19T23:36:55.594Z,71.90
2023-02-19T23:39:22.951Z,71.40
2023-02-19T23:41:57.696Z,71.50
2023-02-19T23:44:25.573Z,71.30
2023-02-19T23:46:52.565Z,69.80
2023-02-19T23:49:19.543Z,70.90
2023-02-19T23:51:46.466Z,70.70
2023-02-19T23:54:13.505Z,69.40
2023-02-19T23:56:40.598Z,70.20
2023-02-19T23:59:07.673Z,68.70
